Time;durP1;ratioP1;P1;durP2;ratioP2;P2;SDS_P1;SDS_P2;PMS_P1;PMS_P2;Temp;Humidity;BMP_temperature;BMP_pressure;BME280_temperature;BME280_humidity;BME280_pressure;Samples;Min_cycle;Max_cycle;Signal;HPM_P1;HPM_P2
2022/09/21 00:00:23;;;;;;;3.08;0.80;;;;;;;5.40;54.98;102597.25;5007572;28;20442;-69
2022/09/21 00:02:49;;;;;;;1.25;0.40;;;;;;;5.38;54.85;102604.16;5009030;28;20421;-69
2022/09/21 00:05:14;;;;;;;3.65;0.70;;;;;;;5.39;54.67;102600.69;5009716;28;20083;-69
2022/09/21 00:07:39;;;;;;;1.02;0.30;;;;;;;5.36;54.90;102600.66;5008409;28;20045;-70
2022/09/21 00:10:05;;;;;;;1.23;0.43;;;;;;;5.39;55.12;102600.69;5031210;28;20037;-68
2022/09/21 00:12:32;;;;;;;2.60;0.40;;;;;;;5.45;54.86;102595.56;5009166;28;20164;-67
2022/09/21 00:14:57;;;;;;;1.30;0.40;;;;;;;5.40;54.81;102592.06;5008577;28;20524;-68
2022/09/21 00:17:23;;;;;;;1.05;0.50;;;;;;;5.39;54.76;102592.91;5010109;28;20061;-70
2022/09/21 00:19:48;;;;;;;2.22;0.30;;;;;;;5.35;54.69;102598.94;5009602;28;20033;-67
2022/09/21 00:22:14;;;;;;;3.00;0.30;;;;;;;5.37;54.40;102607.56;5029801;28;20080;-68
2022/09/21 00:24:39;;;;;;;1.02;0.20;;;;;;;5.22;54.27;102603.13;5008302;28;20127;-70
2022/09/21 00:27:05;;;;;;;0.70;0.30;;;;;;;5.20;54.30;102605.69;5014009;28;20061;-70
2022/09/21 00:29:30;;;;;;;1.15;0.80;;;;;;;5.29;54.52;102601.47;5007238;28;20034;-70
2022/09/21 00:31:55;;;;;;;3.05;0.50;;;;;;;5.20;54.99;102602.25;5008573;28;20080;-70
2022/09/21 00:34:21;;;;;;;1.80;0.68;;;;;;;5.22;54.60;102598.81;5007710;28;20117;-69
2022/09/21 00:36:46;;;;;;;1.05;0.43;;;;;;;5.24;54.44;102596.25;5007759;28;20076;-70
2022/09/21 00:39:12;;;;;;;1.17;0.40;;;;;;;5.20;54.60;102599.66;5013129;28;20403;-71
2022/09/21 00:41:37;;;;;;;1.48;0.30;;;;;;;5.11;54.75;102595.25;5022343;28;20041;-71
2022/09/21 00:44:15;;;;;;;2.58;0.47;;;;;;;5.05;54.54;102595.16;5000420;28;20033;-69
2022/09/21 00:46:41;;;;;;;1.55;0.30;;;;;;;5.07;54.72;102601.25;5012959;28;20029;-69
2022/09/21 00:49:08;;;;;;;2.05;0.60;;;;;;;5.15;54.75;102598.75;5010723;28;20037;-69
2022/09/21 00:51:35;;;;;;;2.13;0.70;;;;;;;5.13;54.92;102601.31;5006050;28;20030;-69
2022/09/21 00:54:07;;;;;;;3.50;0.95;;;;;;;5.03;54.97;102607.22;5029572;28;20025;-69
2022/09/21 00:56:34;;;;;;;5.38;0.80;;;;;;;5.05;54.74;102606.41;5008131;28;20545;-70
2022/09/21 00:59:00;;;;;;;5.22;0.88;;;;;;;5.11;54.40;102604.75;4998749;28;20068;-68
2022/09/21 01:01:26;;;;;;;1.20;0.47;;;;;;;5.14;54.71;102605.63;5009932;28;20033;-68
2022/09/21 01:03:52;;;;;;;1.15;0.57;;;;;;;5.12;54.57;102602.16;5007143;28;20045;-68
2022/09/21 01:06:19;;;;;;;1.73;0.40;;;;;;;5.05;54.35;102600.34;5009211;28;20517;-68
2022/09/21 01:08:48;;;;;;;2.75;0.35;;;;;;;4.97;54.35;102607.19;4995718;28;20045;-68
2022/09/21 01:11:19;;;;;;;2.53;0.38;;;;;;;4.93;54.40;102615.78;5014054;28;20040;-69
2022/09/21 01:14:10;;;;;;;0.70;0.32;;;;;;;4.91;54.53;102601.94;5009005;28;20065;-71
2022/09/21 01:17:08;;;;;;;1.10;0.30;;;;;;;4.88;54.44;102602.78;5006336;28;20041;-72
2022/09/21 01:19:45;;;;;;;2.53;1.00;;;;;;;4.83;55.01;102605.28;4989024;28;20117;-71
2022/09/21 01:22:14;;;;;;;1.23;0.30;;;;;;;4.84;54.60;102607.00;5028584;28;20045;-67
2022/09/21 01:24:59;;;;;;;0.68;0.28;;;;;;;4.86;54.49;102603.56;5008091;28;20033;-70
2022/09/21 01:27:37;;;;;;;0.73;0.22;;;;;;;4.80;54.58;102605.22;5008170;28;20482;-72
2022/09/21 01:30:13;;;;;;;2.50;0.40;;;;;;;4.71;54.64;102606.84;5012126;28;20052;-71
2022/09/21 01:32:49;;;;;;;1.65;0.20;;;;;;;4.68;54.75;102597.31;5007521;28;20081;-71
2022/09/21 01:35:29;;;;;;;0.68;0.30;;;;;;;4.71;54.95;102607.72;5024569;28;20084;-70
2022/09/21 01:38:00;;;;;;;1.35;0.22;;;;;;;4.74;54.55;102610.31;5013368;28;20041;-70
2022/09/21 01:40:32;;;;;;;2.55;0.80;;;;;;;4.72;54.86;102604.28;5008454;28;20099;-71
2022/09/21 01:43:00;;;;;;;0.90;0.30;;;;;;;4.65;54.63;102597.25;5011029;28;20034;-68
2022/09/21 01:45:33;;;;;;;3.30;0.57;;;;;;;4.64;54.28;102608.50;5007098;28;20053;-70
2022/09/21 01:48:03;;;;;;;2.30;0.30;;;;;;;4.62;54.33;102602.41;5007190;28;20529;-68
2022/09/21 01:50:36;;;;;;;0.65;0.30;;;;;;;4.58;54.41;102606.69;5013579;28;20448;-68
2022/09/21 01:53:31;;;;;;;0.98;0.30;;;;;;;4.58;54.63;102613.59;5008738;28;20052;-69
2022/09/21 01:56:01;;;;;;;1.02;0.20;;;;;;;4.56;54.53;102605.78;5009172;28;20046;-68
2022/09/21 01:58:44;;;;;;;3.75;0.32;;;;;;;4.56;54.59;102612.69;5026931;28;20492;-69
2022/09/21 02:01:16;;;;;;;1.23;0.20;;;;;;;4.53;54.64;102610.94;5009848;28;20469;-69
2022/09/21 02:03:54;;;;;;;1.85;0.20;;;;;;;4.46;54.61;102614.31;5005055;28;20046;-68
2022/09/21 02:06:19;;;;;;;3.80;0.30;;;;;;;4.33;54.57;102613.25;5009183;28;20040;-69
2022/09/21 02:08:45;;;;;;;2.47;0.45;;;;;;;4.27;54.89;102618.34;5005151;28;20037;-70
2022/09/21 02:11:12;;;;;;;4.95;0.50;;;;;;;4.18;55.06;102611.31;5010094;28;20523;-72
2022/09/21 02:13:41;;;;;;;0.70;0.20;;;;;;;4.19;54.70;102614.78;5007888;28;22866;-72
2022/09/21 02:16:38;;;;;;;3.60;0.50;;;;;;;4.14;54.83;102613.81;5018359;28;20037;-72
2022/09/21 02:19:20;;;;;;;0.85;0.20;;;;;;;4.06;55.04;102607.69;5013132;28;20045;-72
2022/09/21 02:21:56;;;;;;;3.20;0.20;;;;;;;4.06;55.13;102610.28;5011299;28;20033;-72
2022/09/21 02:24:24;;;;;;;2.80;0.35;;;;;;;4.07;54.96;102612.88;5016580;28;20033;-71
2022/09/21 02:27:02;;;;;;;1.27;0.20;;;;;;;4.14;54.80;102606.06;5010611;28;20735;-71
2022/09/21 02:29:27;;;;;;;0.95;0.30;;;;;;;4.12;55.04;102608.66;5015743;28;20558;-68
2022/09/21 02:32:24;;;;;;;2.53;0.30;;;;;;;4.18;55.24;102605.25;5010366;28;20124;-68
2022/09/21 02:35:03;;;;;;;2.13;0.38;;;;;;;4.22;54.59;102610.50;5007950;28;20053;-69
2022/09/21 02:37:47;;;;;;;0.80;0.30;;;;;;;4.24;54.91;102615.72;5016462;28;20119;-68
2022/09/21 02:40:29;;;;;;;6.22;0.55;;;;;;;4.30;54.73;102613.22;5011929;28;20057;-68
2022/09/21 02:43:01;;;;;;;0.90;0.25;;;;;;;4.16;54.45;102613.03;5011164;28;20383;-69
2022/09/21 02:45:33;;;;;;;0.93;0.30;;;;;;;4.16;54.81;102614.72;5014977;28;20033;-68
2022/09/21 02:48:08;;;;;;;3.25;0.40;;;;;;;4.18;55.08;102613.03;5032133;28;20049;-69
2022/09/21 02:50:55;;;;;;;1.23;0.32;;;;;;;4.32;54.75;102616.69;5011794;28;20075;-68
2022/09/21 02:53:35;;;;;;;1.67;1.08;;;;;;;4.29;54.52;102618.38;5007912;28;20471;-69
2022/09/21 02:56:06;;;;;;;0.90;0.60;;;;;;;4.17;54.82;102613.91;5011534;28;20037;-68
2022/09/21 02:58:38;;;;;;;1.23;0.35;;;;;;;4.12;55.04;102615.53;5008240;28;20049;-67
2022/09/21 03:01:07;;;;;;;1.50;0.50;;;;;;;4.17;54.94;102614.75;5011369;28;20029;-66
2022/09/21 03:03:33;;;;;;;2.50;0.20;;;;;;;4.09;54.67;102618.94;5008084;28;20045;-73
2022/09/21 03:06:00;;;;;;;1.27;0.40;;;;;;;4.05;54.81;102616.28;5011270;28;20038;-73
2022/09/21 03:08:29;;;;;;;1.25;0.30;;;;;;;4.13;54.94;102622.44;5010005;28;20073;-73
2022/09/21 03:10:56;;;;;;;3.70;0.88;;;;;;;4.14;54.80;102616.41;5010607;28;20040;-72
2022/09/21 03:13:23;;;;;;;1.23;0.43;;;;;;;4.16;54.78;102619.91;4991003;28;20091;-68
2022/09/21 03:15:48;;;;;;;2.28;0.55;;;;;;;4.12;54.69;102621.59;5013440;28;20042;-68
2022/09/21 03:18:14;;;;;;;1.10;0.30;;;;;;;4.09;54.67;102615.50;5011124;28;20391;-69
2022/09/21 03:20:44;;;;;;;2.25;0.60;;;;;;;4.06;54.84;102624.06;5008556;28;20034;-67
2022/09/21 03:23:11;;;;;;;2.67;0.50;;;;;;;4.01;55.23;102616.25;5015550;28;20045;-67
2022/09/21 03:25:36;;;;;;;2.38;0.82;;;;;;;4.00;55.04;102613.63;5030567;28;20096;-67
2022/09/21 03:28:02;;;;;;;2.17;0.40;;;;;;;3.98;54.94;102618.81;5010201;28;20096;-68
2022/09/21 03:30:28;;;;;;;2.38;0.38;;;;;;;3.93;54.88;102625.59;5008455;28;20040;-67
2022/09/21 03:32:54;;;;;;;3.35;0.45;;;;;;;3.99;55.15;102620.53;5010031;28;20042;-67
2022/09/21 03:35:21;;;;;;;3.70;0.52;;;;;;;4.13;55.06;102630.22;5007207;28;20497;-66
2022/09/21 03:37:48;;;;;;;4.82;0.60;;;;;;;4.09;55.24;102625.84;5009579;28;20045;-67
2022/09/21 03:40:15;;;;;;;2.60;0.40;;;;;;;4.13;54.99;102627.63;5007456;28;20033;-68
2022/09/21 03:42:43;;;;;;;2.88;0.88;;;;;;;4.15;54.85;102628.53;5008558;28;20108;-67
2022/09/21 03:45:10;;;;;;;1.27;0.20;;;;;;;4.01;54.87;102634.38;5009812;28;20053;-68
2022/09/21 03:47:37;;;;;;;0.68;0.30;;;;;;;3.97;54.77;102632.56;5014251;28;20064;-68
2022/09/21 03:50:05;;;;;;;1.80;0.50;;;;;;;3.98;55.08;102631.75;5008384;28;20472;-68
2022/09/21 03:52:30;;;;;;;3.42;0.55;;;;;;;3.97;55.12;102626.53;5028829;28;20457;-67
2022/09/21 03:54:57;;;;;;;2.03;0.30;;;;;;;3.86;54.98;102628.94;5009502;28;20037;-68
2022/09/21 03:57:22;;;;;;;2.75;0.60;;;;;;;3.86;55.10;102631.53;4991989;28;20037;-71
2022/09/21 03:59:48;;;;;;;2.28;0.73;;;;;;;3.84;55.36;102628.03;5010209;28;20592;-71
2022/09/21 04:02:15;;;;;;;0.80;0.73;;;;;;;3.84;55.56;102633.22;5010509;28;20037;-71
2022/09/21 04:04:40;;;;;;;1.65;1.08;;;;;;;3.81;55.02;102633.19;5008119;28;20433;-71
2022/09/21 04:07:06;;;;;;;2.97;1.05;;;;;;;3.70;55.37;102638.16;5008271;28;20037;-69
2022/09/21 04:09:31;;;;;;;1.63;0.68;;;;;;;3.67;55.56;102634.63;5010854;28;20498;-70
2022/09/21 04:11:57;;;;;;;1.20;0.50;;;;;;;3.80;55.33;102636.59;5007274;28;20041;-70
2022/09/21 04:14:22;;;;;;;1.75;0.30;;;;;;;3.87;55.51;102632.38;5008711;28;20496;-68
2022/09/21 04:16:50;;;;;;;2.60;0.30;;;;;;;3.72;55.10;102627.84;5006699;28;20137;-67
2022/09/21 04:19:17;;;;;;;4.50;0.60;;;;;;;3.72;55.51;102633.88;5016268;28;20190;-66
2022/09/21 04:21:42;;;;;;;1.40;0.52;;;;;;;3.80;55.09;102636.59;5006959;28;20033;-66
2022/09/21 04:24:08;;;;;;;2.60;0.45;;;;;;;3.73;54.97;102632.16;5015067;28;20034;-66
2022/09/21 04:26:34;;;;;;;1.00;0.57;;;;;;;3.62;55.44;102631.97;5009216;28;20512;-67
2022/09/21 04:29:00;;;;;;;0.70;0.30;;;;;;;3.59;55.23;102630.22;5007901;28;20029;-67
2022/09/21 04:31:27;;;;;;;3.50;0.60;;;;;;;3.53;55.46;102635.28;5007886;28;20531;-67
2022/09/21 04:33:54;;;;;;;2.03;0.50;;;;;;;3.53;55.77;102632.69;5007592;28;20493;-66
2022/09/21 04:36:21;;;;;;;1.42;0.40;;;;;;;3.56;55.67;102626.69;5013960;28;20132;-67
2022/09/21 04:38:47;;;;;;;2.33;1.15;;;;;;;3.50;55.49;102630.06;5020535;28;20048;-66
2022/09/21 04:41:14;;;;;;;1.67;0.50;;;;;;;3.44;55.33;102629.94;5032049;28;20048;-66
2022/09/21 04:43:44;;;;;;;2.60;0.77;;;;;;;3.42;55.50;102634.22;5007727;28;20521;-66
2022/09/21 04:46:16;;;;;;;3.95;0.60;;;;;;;3.38;55.98;102624.66;5011784;28;20043;-66
2022/09/21 04:48:42;;;;;;;1.27;0.47;;;;;;;3.36;55.92;102628.97;5007877;28;20072;-66
2022/09/21 04:51:09;;;;;;;1.73;0.50;;;;;;;3.35;55.91;102630.66;5010045;28;20403;-66
2022/09/21 04:53:36;;;;;;;1.70;0.40;;;;;;;3.42;55.74;102634.22;5004861;28;20080;-67
2022/09/21 04:56:02;;;;;;;0.90;0.40;;;;;;;3.40;56.25;102635.91;5008949;28;20583;-74
2022/09/21 04:58:28;;;;;;;2.35;0.95;;;;;;;3.39;55.85;102631.59;5006801;28;20128;-67
2022/09/21 05:00:55;;;;;;;5.90;0.43;;;;;;;3.34;56.08;102639.25;5008245;28;20413;-70
2022/09/21 05:03:22;;;;;;;3.17;0.65;;;;;;;3.30;56.46;102636.59;5004740;28;20314;-71
2022/09/21 05:05:53;;;;;;;0.88;0.60;;;;;;;3.32;55.99;102638.34;5009762;28;20387;-69
2022/09/21 05:11:05;;;;;;;1.58;0.60;;;;;;;3.45;55.70;102644.63;5015081;28;20529;-67
2022/09/21 05:13:30;;;;;;;1.30;0.40;;;;;;;3.47;55.78;102647.22;5007814;28;20132;-67
2022/09/21 05:15:56;;;;;;;1.65;0.73;;;;;;;3.54;55.64;102655.13;5011223;28;20037;-68
2022/09/21 05:18:21;;;;;;;1.90;0.45;;;;;;;3.55;55.82;102656.84;5007640;28;20080;-68
2022/09/21 05:20:54;;;;;;;1.75;0.70;;;;;;;3.63;55.90;102653.53;5008284;28;20080;-69
2022/09/21 05:23:19;;;;;;;1.40;0.70;;;;;;;3.71;55.69;102659.72;5006984;28;20110;-68
2022/09/21 05:25:45;;;;;;;2.03;0.52;;;;;;;3.74;55.60;102657.19;5013180;28;20469;-70
2022/09/21 05:28:11;;;;;;;4.10;0.60;;;;;;;3.77;55.52;102662.41;5013591;28;20593;-70
2022/09/21 05:30:36;;;;;;;3.42;0.40;;;;;;;3.82;55.79;102665.06;5008078;28;20026;-73
2022/09/21 05:33:03;;;;;;;1.80;0.60;;;;;;;3.82;55.60;102665.94;5008466;28;20095;-70
2022/09/21 05:35:37;;;;;;;4.07;1.00;;;;;;;3.86;55.49;102672.91;5008043;28;20525;-70
2022/09/21 05:38:18;;;;;;;5.53;1.38;;;;;;;3.83;55.40;102672.88;5006281;28;20271;-72
2022/09/21 05:40:49;;;;;;;8.90;1.83;;;;;;;3.91;55.68;102666.09;5007685;28;20036;-67
2022/09/21 05:43:15;;;;;;;5.60;2.65;;;;;;;3.98;55.48;102673.13;5008367;28;20049;-69
2022/09/21 05:45:44;;;;;;;9.45;0.98;;;;;;;4.04;55.38;102666.31;5006464;28;20349;-68
2022/09/21 05:48:42;;;;;;;5.53;1.33;;;;;;;4.06;55.61;102675.84;5009139;28;20120;-68
2022/09/21 05:51:55;;;;;;;8.48;1.67;;;;;;;4.14;55.26;102678.53;4990957;28;20049;-72
2022/09/21 05:54:49;;;;;;;5.55;1.30;;;;;;;4.19;55.15;102682.09;4989812;28;20571;-72
2022/09/21 05:57:49;;;;;;;2.30;0.68;;;;;;;4.31;55.25;102687.44;5011992;28;20555;-73
2022/09/21 06:00:17;;;;;;;2.13;0.80;;;;;;;4.41;55.12;102680.69;5012505;28;20100;-72
2022/09/21 06:03:16;;;;;;;6.88;0.75;;;;;;;4.90;56.90;102677.91;5013838;28;20062;-73
2022/09/21 06:05:42;;;;;;;5.90;1.30;;;;;;;7.29;53.84;102665.91;5010617;28;20038;-74
2022/09/21 06:08:08;;;;;;;4.55;1.42;;;;;;;9.10;50.31;102673.56;5011735;28;20049;-71
2022/09/21 06:10:34;;;;;;;6.45;1.45;;;;;;;10.80;48.38;102662.53;4994997;28;20402;-72
2022/09/21 06:13:00;;;;;;;5.32;0.95;;;;;;;12.85;44.84;102668.78;5011439;28;20052;-72
2022/09/21 06:15:25;;;;;;;4.30;0.95;;;;;;;14.20;40.00;102663.84;5012279;28;20083;-72
2022/09/21 06:17:51;;;;;;;4.18;1.15;;;;;;;15.27;35.65;102667.81;5013377;28;20475;-71
2022/09/21 06:20:16;;;;;;;5.65;1.00;;;;;;;16.52;32.92;102673.22;4995254;28;20555;-72
2022/09/21 06:22:42;;;;;;;3.20;0.70;;;;;;;17.70;31.95;102672.22;5011335;28;20042;-73
2022/09/21 06:25:08;;;;;;;1.67;0.40;;;;;;;18.07;28.23;102666.19;5011173;28;20486;-72
2022/09/21 06:27:33;;;;;;;4.47;0.65;;;;;;;18.44;27.97;102665.47;5011132;28;20041;-73
2022/09/21 06:29:59;;;;;;;0.73;0.52;;;;;;;19.20;27.09;102660.19;5012303;28;20029;-73
2022/09/21 06:32:24;;;;;;;1.08;0.68;;;;;;;19.82;27.57;102668.63;5010566;28;20121;-72
2022/09/21 06:34:50;;;;;;;4.05;0.77;;;;;;;20.61;25.02;102669.81;5013128;28;20029;-74
2022/09/21 06:37:16;;;;;;;1.65;0.40;;;;;;;20.77;24.26;102667.19;5011550;28;20050;-73
2022/09/21 06:39:41;;;;;;;9.32;0.70;;;;;;;21.28;23.81;102660.72;4994614;28;20546;-75
2022/09/21 06:42:07;;;;;;;2.42;0.50;;;;;;;21.16;24.86;102664.13;5010104;28;20073;-72
2022/09/21 06:44:32;;;;;;;3.53;0.75;;;;;;;21.02;24.30;102661.38;5010009;28;20026;-72
2022/09/21 06:46:58;;;;;;;5.30;0.60;;;;;;;21.00;23.96;102665.91;5009766;28;21650;-72
2022/09/21 06:49:23;;;;;;;4.75;0.68;;;;;;;21.96;23.66;102665.63;5011455;28;20088;-72
2022/09/21 06:51:48;;;;;;;2.15;0.80;;;;;;;22.09;22.77;102662.22;5009131;28;20331;-73
2022/09/21 06:54:14;;;;;;;7.38;0.70;;;;;;;22.92;21.99;102654.41;5014528;28;20083;-74
2022/09/21 06:56:42;;;;;;;5.18;0.68;;;;;;;23.46;21.70;102656.22;4991313;28;20037;-70
2022/09/21 06:59:08;;;;;;;2.00;0.63;;;;;;;23.79;22.42;102664.59;5016447;28;20064;-70
2022/09/21 07:01:33;;;;;;;1.83;0.38;;;;;;;24.34;21.94;102654.53;5006168;28;20107;-70
2022/09/21 07:03:59;;;;;;;5.07;0.50;;;;;;;24.55;21.46;102662.88;5010058;28;20038;-70
2022/09/21 07:06:24;;;;;;;2.85;0.60;;;;;;;25.00;21.40;102665.84;5014096;28;20041;-71
2022/09/21 07:08:53;;;;;;;3.55;0.65;;;;;;;25.20;20.07;102660.84;5007609;28;20042;-71
2022/09/21 07:11:20;;;;;;;7.75;0.93;;;;;;;25.28;20.21;102658.44;5000895;28;20284;-69
2022/09/21 07:13:46;;;;;;;4.53;0.80;;;;;;;25.82;19.40;102652.53;5009297;28;20044;-69
2022/09/21 07:16:12;;;;;;;2.70;0.50;;;;;;;26.29;19.83;102660.53;4995280;28;20033;-68
2022/09/21 07:18:39;;;;;;;3.08;1.80;;;;;;;26.28;19.51;102659.66;5007647;28;20072;-68
2022/09/21 07:21:07;;;;;;;3.33;0.85;;;;;;;27.37;17.94;102657.94;5012084;28;20033;-69
2022/09/21 07:23:33;;;;;;;8.10;0.80;;;;;;;27.25;17.97;102658.97;5009653;28;20132;-69
2022/09/21 07:26:08;;;;;;;3.65;0.65;;;;;;;27.76;18.74;102658.22;5026245;28;20041;-68
2022/09/21 07:28:34;;;;;;;5.10;0.90;;;;;;;27.71;19.08;102665.84;5009575;28;20090;-69
2022/09/21 07:31:14;;;;;;;5.95;0.80;;;;;;;28.37;18.09;102662.78;5011492;28;20037;-70
2022/09/21 07:33:40;;;;;;;3.30;0.57;;;;;;;28.44;17.85;102663.09;5008325;28;20118;-69
2022/09/21 07:36:09;;;;;;;3.35;0.40;;;;;;;28.60;17.17;102663.41;5016505;28;20381;-69
2022/09/21 07:38:42;;;;;;;8.48;0.65;;;;;;;29.34;16.82;102667.47;5012926;28;20041;-68
2022/09/21 07:41:12;;;;;;;3.03;0.57;;;;;;;29.34;16.87;102668.31;5012634;28;20406;-69
2022/09/21 07:43:39;;;;;;;1.83;0.30;;;;;;;28.89;16.79;102674.25;5008856;28;20720;-70
2022/09/21 07:46:05;;;;;;;2.85;0.30;;;;;;;28.50;17.04;102667.91;5014903;28;20060;-69
2022/09/21 07:48:31;;;;;;;1.48;0.40;;;;;;;28.36;17.11;102673.69;5004109;28;20425;-70
2022/09/21 07:51:04;;;;;;;4.60;0.20;;;;;;;28.74;17.50;102671.09;5009974;28;20044;-69
2022/09/21 07:53:31;;;;;;;3.63;0.73;;;;;;;28.15;17.54;102679.13;5006985;28;20312;-69
2022/09/21 07:56:02;;;;;;;1.63;0.38;;;;;;;28.21;18.25;102674.06;5023471;28;20490;-69
2022/09/21 08:01:12;;;;;;;2.83;0.20;;;;;;;27.86;18.34;102679.78;5009131;28;20048;-68
2022/09/21 08:03:37;;;;;;;3.60;0.20;;;;;;;28.84;17.86;102679.22;5005084;28;20057;-69
2022/09/21 08:06:03;;;;;;;1.65;0.32;;;;;;;29.17;17.15;102674.41;5007973;28;20034;-69
2022/09/21 08:08:29;;;;;;;3.78;0.75;;;;;;;28.71;18.14;102676.78;5004682;28;20038;-70
2022/09/21 08:10:56;;;;;;;2.38;0.28;;;;;;;29.75;17.31;102678.91;5006929;28;20025;-69
2022/09/21 08:13:21;;;;;;;2.90;0.50;;;;;;;29.10;17.76;102674.13;5006841;28;20561;-70
2022/09/21 08:15:56;;;;;;;2.63;0.20;;;;;;;29.63;17.29;102678.25;5005710;28;20057;-69
2022/09/21 08:18:22;;;;;;;4.68;0.80;;;;;;;27.86;18.19;102686.00;5009629;28;20061;-69
2022/09/21 08:20:56;;;;;;;2.97;0.30;;;;;;;27.75;19.10;102682.56;5009197;28;20494;-70
2022/09/21 08:23:21;;;;;;;1.65;0.25;;;;;;;28.40;18.80;102684.03;5009428;28;20191;-70
2022/09/21 08:25:47;;;;;;;3.80;0.57;;;;;;;27.80;19.90;102680.31;5009053;28;21405;-69
2022/09/21 08:28:13;;;;;;;2.95;0.20;;;;;;;28.01;18.60;102681.16;5010772;28;20057;-69
2022/09/21 08:30:40;;;;;;;5.57;0.40;;;;;;;27.51;18.62;102679.09;5007988;28;20116;-70
2022/09/21 08:33:07;;;;;;;0.60;0.10;;;;;;;27.67;18.73;102678.66;5014036;28;20041;-70
2022/09/21 08:35:33;;;;;;;3.60;0.25;;;;;;;27.58;18.41;102675.91;5010557;28;20121;-70
2022/09/21 08:37:59;;;;;;;2.05;0.30;;;;;;;27.18;19.23;102672.06;5010902;28;20049;-70
2022/09/21 08:40:24;;;;;;;2.50;0.30;;;;;;;26.33;19.72;102682.56;5008797;28;20067;-69
2022/09/21 08:42:55;;;;;;;3.20;0.10;;;;;;;26.17;20.37;102685.59;5008611;28;20081;-69
2022/09/21 08:45:23;;;;;;;0.95;0.20;;;;;;;25.85;20.81;102684.44;5007265;28;20025;-70
2022/09/21 08:47:55;;;;;;;3.28;0.35;;;;;;;25.23;22.12;102692.72;5006974;28;20084;-69
2022/09/21 08:50:39;;;;;;;;;;;;;;;24.74;22.80;102681.09;5008885;28;20040;-69
2022/09/21 08:53:11;;;;;;;3.15;0.20;;;;;;;24.37;23.23;102689.06;5008877;28;19921;-68
2022/09/21 08:55:37;;;;;;;3.80;0.63;;;;;;;22.74;24.50;102689.28;5008594;28;20045;-69
2022/09/21 08:58:02;;;;;;;8.57;0.20;;;;;;;21.59;25.86;102693.56;5006938;28;20537;-69
2022/09/21 09:00:33;;;;;;;3.22;0.10;;;;;;;21.63;25.32;102694.25;5007645;28;20622;-69
2022/09/21 09:03:26;;;;;;;1.75;0.17;;;;;;;21.84;25.69;102700.09;5005526;28;20128;-68
2022/09/21 09:06:23;;;;;;;3.05;0.28;;;;;;;21.02;25.36;102702.13;5013539;28;20088;-68
2022/09/21 09:09:22;;;;;;;4.13;0.10;;;;;;;20.81;24.63;102705.94;5006421;28;20046;-69
2022/09/21 09:12:17;;;;;;;4.72;0.20;;;;;;;20.51;24.79;102704.00;5012303;28;20095;-69
2022/09/21 09:15:10;;;;;;;3.08;0.20;;;;;;;20.36;27.80;102703.00;5028750;28;20033;-69
2022/09/21 09:18:09;;;;;;;2.72;0.10;;;;;;;20.12;27.66;102703.31;5009053;28;20521;-69
2022/09/21 09:21:04;;;;;;;1.38;0.10;;;;;;;20.74;24.97;102705.41;5011259;28;20136;-68
2022/09/21 09:23:33;;;;;;;3.70;0.10;;;;;;;21.14;25.59;102698.75;5006902;28;20168;-69
2022/09/21 09:26:05;;;;;;;3.45;0.20;;;;;;;21.45;25.00;102706.81;5016334;28;20045;-68
2022/09/21 09:28:46;;;;;;;1.45;0.20;;;;;;;21.87;24.89;102707.91;5012109;28;20341;-70
2022/09/21 09:31:18;;;;;;;2.08;0.10;;;;;;;21.64;24.45;102706.59;5014941;28;20037;-69
2022/09/21 09:33:57;;;;;;;3.53;0.20;;;;;;;21.88;23.49;102706.97;5006259;28;20537;-68
2022/09/21 09:36:29;;;;;;;1.83;0.20;;;;;;;21.70;24.49;102708.91;5034225;28;20061;-69
2022/09/21 09:38:57;;;;;;;4.47;0.20;;;;;;;21.06;25.29;102710.75;5010549;28;20405;-69
2022/09/21 09:41:34;;;;;;;4.88;0.20;;;;;;;20.65;25.38;102712.06;5014980;28;20486;-68
2022/09/21 09:44:05;;;;;;;3.53;0.10;;;;;;;20.63;26.59;102713.09;5012623;28;20060;-69
2022/09/21 09:46:46;;;;;;;2.92;0.17;;;;;;;20.41;25.58;102719.56;5010432;28;20037;-70
2022/09/21 09:49:24;;;;;;;1.73;0.20;;;;;;;20.64;25.49;102710.38;4995960;28;20466;-68
2022/09/21 09:51:50;;;;;;;5.10;0.35;;;;;;;19.73;26.10;102711.53;5011257;28;20076;-69
2022/09/21 09:54:17;;;;;;;2.35;0.10;;;;;;;19.86;25.87;102711.75;5014831;28;20021;-68
2022/09/21 09:56:43;;;;;;;1.38;0.10;;;;;;;20.51;25.42;102707.50;5007442;28;20571;-69
2022/09/21 09:59:23;;;;;;;3.28;0.30;;;;;;;21.33;24.59;102703.91;5012934;28;20143;-69
2022/09/21 10:02:27;;;;;;;4.25;0.10;;;;;;;20.71;24.74;102701.13;5025523;28;20418;-69
2022/09/21 10:05:05;;;;;;;2.58;0.30;;;;;;;19.96;25.83;102702.41;4990600;28;20045;-69
2022/09/21 10:07:47;;;;;;;2.75;0.38;;;;;;;20.18;26.66;102702.16;5010367;28;20477;-71
2022/09/21 10:10:28;;;;;;;1.20;0.10;;;;;;;20.70;25.86;102701.19;5010904;28;20040;-70
2022/09/21 10:13:15;;;;;;;4.30;0.10;;;;;;;20.39;25.79;102697.53;5011856;28;20048;-70
2022/09/21 10:15:53;;;;;;;4.65;0.20;;;;;;;20.60;25.91;102692.03;4992610;28;20064;-70
2022/09/21 10:18:26;;;;;;;4.50;0.40;;;;;;;20.97;24.92;102679.38;5012433;28;20049;-70
2022/09/21 10:20:59;;;;;;;3.30;0.10;;;;;;;20.74;24.29;102695.63;5011226;28;20034;-70
2022/09/21 10:23:25;;;;;;;1.33;0.10;;;;;;;20.38;26.17;102698.47;5010789;28;20054;-70
2022/09/21 10:26:12;;;;;;;3.40;0.15;;;;;;;20.47;26.49;102694.47;5015710;28;20049;-71
2022/09/21 10:28:57;;;;;;;3.30;0.10;;;;;;;19.39;28.06;102691.09;4997699;28;20046;-70
2022/09/21 10:31:25;;;;;;;2.28;0.17;;;;;;;20.16;25.48;102692.56;5012254;28;20063;-70
2022/09/21 10:34:12;;;;;;;1.52;0.20;;;;;;;19.85;26.67;102694.13;5008196;28;20064;-69
2022/09/21 10:36:38;;;;;;;2.45;0.30;;;;;;;20.12;26.88;102692.69;5015418;28;20030;-71
2022/09/21 10:39:22;;;;;;;2.97;0.10;;;;;;;20.85;25.89;102687.09;5009895;28;20037;-71
2022/09/21 10:41:50;;;;;;;6.72;0.25;;;;;;;20.79;25.10;102682.09;5009316;28;20045;-70
2022/09/21 10:44:18;;;;;;;1.90;0.20;;;;;;;20.25;26.41;102681.47;5014527;28;20609;-70
2022/09/21 10:46:47;;;;;;;4.72;0.20;;;;;;;21.15;26.00;102678.34;5009278;28;20044;-71
2022/09/21 10:49:40;;;;;;;4.20;0.10;;;;;;;21.41;24.51;102686.63;5011186;28;20136;-71
2022/09/21 10:52:06;;;;;;;1.20;0.30;;;;;;;21.09;24.88;102684.03;4989577;28;20587;-70
2022/09/21 10:54:32;;;;;;;3.85;0.10;;;;;;;21.64;24.03;102680.84;5016215;28;20029;-71
2022/09/21 10:57:03;;;;;;;1.38;0.20;;;;;;;20.93;24.91;102684.00;5007947;28;20037;-71
2022/09/21 10:59:34;;;;;;;4.28;0.70;;;;;;;20.56;24.65;102690.47;5009213;28;20125;-71
2022/09/21 11:02:01;;;;;;;4.97;0.30;;;;;;;20.92;25.09;102688.47;5014769;28;20383;-71
2022/09/21 11:04:50;;;;;;;2.83;0.10;;;;;;;20.56;26.87;102685.16;5012623;28;20034;-71
2022/09/21 11:07:34;;;;;;;3.22;0.10;;;;;;;20.79;25.38;102689.22;5016335;28;20045;-70
2022/09/21 11:10:12;;;;;;;4.60;0.30;;;;;;;20.77;25.35;102688.44;5011703;28;20123;-71
2022/09/21 11:13:02;;;;;;;3.25;0.13;;;;;;;20.22;25.96;102686.97;5009754;28;20499;-71
2022/09/21 11:15:32;;;;;;;3.50;0.20;;;;;;;20.71;24.94;102686.97;4998354;28;20034;-71
2022/09/21 11:18:03;;;;;;;2.53;0.20;;;;;;;20.76;25.29;102676.94;5010815;28;20898;-70
2022/09/21 11:20:51;;;;;;;1.67;0.10;;;;;;;20.86;24.75;102677.31;4994356;28;20277;-71
2022/09/21 11:23:19;;;;;;;1.23;0.10;;;;;;;21.70;24.30;102674.31;5012264;28;20034;-71
2022/09/21 11:25:53;;;;;;;4.85;0.35;;;;;;;21.28;23.61;102678.50;5015395;28;20099;-70
2022/09/21 11:28:45;;;;;;;5.57;0.10;;;;;;;21.10;25.06;102675.09;5010446;28;20705;-71
2022/09/21 11:31:20;;;;;;;2.00;0.30;;;;;;;21.05;25.91;102679.81;5000022;28;20065;-71
2022/09/21 11:34:16;;;;;;;1.80;0.20;;;;;;;21.39;23.32;102675.22;5007244;28;20053;-71
2022/09/21 11:37:00;;;;;;;2.38;0.00;;;;;;;21.72;23.82;102667.94;5009482;28;20037;-71
2022/09/21 11:39:50;;;;;;;2.90;0.10;;;;;;;22.29;21.77;102671.66;5011185;28;20620;-71
2022/09/21 11:42:26;;;;;;;2.13;0.10;;;;;;;21.42;24.33;102672.38;5014055;28;20544;-70
2022/09/21 11:44:57;;;;;;;3.70;0.20;;;;;;;21.02;23.88;102669.34;5011262;28;20029;-71
2022/09/21 11:48:00;;;;;;;4.60;0.30;;;;;;;21.83;24.12;102658.47;5006471;28;20120;-71
2022/09/21 11:50:29;;;;;;;2.53;0.35;;;;;;;21.86;24.58;102668.94;4998569;28;20030;-71
2022/09/21 11:53:10;;;;;;;0.85;0.13;;;;;;;21.47;23.92;102668.56;5007941;28;20404;-71
2022/09/21 11:55:53;;;;;;;2.15;0.50;;;;;;;20.84;25.09;102664.13;5008680;28;20196;-71